createdAt,value
2019-02-06T00:04:23.113Z,69.88
2019-02-06T00:09:25.658Z,70.06
2019-02-06T00:14:29.066Z,70.14
2019-02-06T00:19:31.703Z,69.89
2019-02-06T00:24:34.447Z,69.62
2019-02-06T00:29:37.298Z,69.84
2019-02-06T00:34:39.734Z,69.85
2019-02-06T00:39:42.655Z,69.72
2019-02-06T00:44:44.875Z,70.17
2019-02-06T00:49:47.476Z,69.92
2019-02-06T00:54:49.659Z,69.76
2019-02-06T00:59:52.251Z,69.68
2019-02-06T01:04:54.788Z,69.57
2019-02-06T01:09:57.100Z,69.44
2019-02-06T01:14:59.306Z,69.52
2019-02-06T01:20:01.524Z,69.33
2019-02-06T01:25:06.259Z,69.17
2019-02-06T01:30:16.712Z,68.93
2019-02-06T01:35:19.337Z,68.93
2019-02-06T01:40:22.256Z,68.82
2019-02-06T01:45:24.751Z,68.96
2019-02-06T01:50:27.120Z,68.83
2019-02-06T01:55:30.409Z,68.62
2019-02-06T02:00:33.103Z,68.62
2019-02-06T02:05:37.849Z,68.47
2019-02-06T02:10:39.440Z,68.39
2019-02-06T02:15:41.829Z,68.20
2019-02-06T02:20:44.202Z,68.18
2019-02-06T02:25:47.344Z,68.17
2019-02-06T02:30:52.966Z,68.12
2019-02-06T02:35:55.285Z,68.06
2019-02-06T02:40:58.012Z,67.79
2019-02-06T02:46:00.611Z,67.78
2019-02-06T02:51:03.189Z,67.62
2019-02-06T02:56:05.998Z,67.51
2019-02-06T03:01:27.315Z,67.36
2019-02-06T03:06:30.109Z,67.24
2019-02-06T03:11:32.288Z,67.25
2019-02-06T03:16:34.784Z,66.79
2019-02-06T03:21:37.388Z,66.96
2019-02-06T03:26:39.819Z,66.69
2019-02-06T03:31:42.321Z,66.42
2019-02-06T03:36:44.683Z,66.17
2019-02-06T03:41:46.866Z,65.87
2019-02-06T03:46:49.028Z,65.67
2019-02-06T03:51:51.160Z,65.53
2019-02-06T03:56:54.196Z,65.33
2019-02-06T04:01:56.806Z,65.42
2019-02-06T04:07:01.354Z,65.22
2019-02-06T04:12:04.592Z,64.98
2019-02-06T04:17:06.789Z,64.97
2019-02-06T04:22:09.089Z,64.94
2019-02-06T04:27:11.720Z,64.98
2019-02-06T04:32:14.533Z,64.98
2019-02-06T04:37:17.533Z,65.01
2019-02-06T04:42:20.090Z,65.04
2019-02-06T04:47:22.818Z,65.17
2019-02-06T04:52:24.973Z,65.17
2019-02-06T04:57:27.671Z,65.23
2019-02-06T05:02:30.181Z,65.39
2019-02-06T05:07:33.280Z,65.56
2019-02-06T05:12:35.432Z,65.80
2019-02-06T05:17:38.307Z,66.17
2019-02-06T05:22:41.268Z,66.54
2019-02-06T05:27:43.792Z,66.74
2019-02-06T05:32:47.148Z,67.05
2019-02-06T05:37:49.917Z,67.40
2019-02-06T05:42:52.864Z,67.59
2019-02-06T05:47:55.309Z,68.01
2019-02-06T05:52:57.863Z,68.24
2019-02-06T05:58:01.389Z,68.56
2019-02-06T06:03:04.197Z,68.89
2019-02-06T06:08:06.777Z,69.24
2019-02-06T06:13:09.787Z,69.50
2019-02-06T06:18:12.140Z,69.89
2019-02-06T06:23:14.353Z,70.20
2019-02-06T06:28:17.147Z,70.57
2019-02-06T06:33:19.848Z,71.08
2019-02-06T06:38:22.692Z,71.52
2019-02-06T06:43:25.170Z,71.80
2019-02-06T06:48:27.477Z,71.93
2019-02-06T06:53:30.013Z,72.30
2019-02-06T06:58:32.618Z,72.42
2019-02-06T07:03:35.408Z,72.60
2019-02-06T07:08:37.569Z,72.65
2019-02-06T07:13:39.875Z,72.40
2019-02-06T07:18:42.305Z,72.88
2019-02-06T07:23:45.374Z,72.78
2019-02-06T07:28:47.863Z,72.82
2019-02-06T07:33:50.256Z,73.10
2019-02-06T07:38:52.539Z,73.28
2019-02-06T07:43:57.454Z,73.09
2019-02-06T07:48:59.996Z,72.99
2019-02-06T07:54:03.209Z,72.93
2019-02-06T07:59:05.754Z,73.36
2019-02-06T08:04:08.338Z,72.97
2019-02-06T08:09:10.733Z,72.04
2019-02-06T08:14:13.155Z,71.74
2019-02-06T08:19:15.556Z,70.73
2019-02-06T08:24:18.302Z,70.33
2019-02-06T08:29:21.134Z,69.71
2019-02-06T08:34:24.100Z,69.28
2019-02-06T08:39:26.834Z,68.19
2019-02-06T08:44:29.029Z,68.20
2019-02-06T08:49:32.375Z,66.49
2019-02-06T08:54:34.591Z,67.22
2019-02-06T08:59:37.171Z,66.07
2019-02-06T09:04:39.470Z,65.44
2019-02-06T09:09:43.579Z,63.90
2019-02-06T09:14:46.133Z,62.88
2019-02-06T09:19:48.277Z,62.90
2019-02-06T09:24:51.009Z,61.85
2019-02-06T09:29:54.493Z,61.14
2019-02-06T09:34:57.940Z,60.32
2019-02-06T09:40:01.142Z,58.51
2019-02-06T09:45:04.437Z,59.09
2019-02-06T09:50:11.885Z,59.13
2019-02-06T09:55:15.083Z,57.62
2019-02-06T10:00:21.685Z,56.93
2019-02-06T10:05:24.398Z,57.03
2019-02-06T10:10:27.371Z,58.27
2019-02-06T10:15:33.382Z,57.34
2019-02-06T10:20:45.998Z,57.35
2019-02-06T10:25:48.655Z,57.63
2019-02-06T10:30:52.188Z,57.38
2019-02-06T10:35:55.200Z,56.43
2019-02-06T10:40:58.376Z,56.74
2019-02-06T10:46:00.580Z,56.50
2019-02-06T10:51:08.517Z,55.45
2019-02-06T10:56:11.863Z,55.65
2019-02-06T11:01:14.391Z,55.03
2019-02-06T11:06:16.932Z,55.24
2019-02-06T11:11:19.568Z,55.11
2019-02-06T11:16:22.496Z,54.49
2019-02-06T11:21:24.665Z,53.03
2019-02-06T11:26:26.872Z,53.17
2019-02-06T11:31:29.180Z,53.07
2019-02-06T11:36:32.353Z,53.25
2019-02-06T11:41:34.933Z,53.78
2019-02-06T11:46:37.415Z,54.04
2019-02-06T11:51:40.309Z,53.97
2019-02-06T11:56:43.655Z,53.14
2019-02-06T12:01:50.134Z,52.71
2019-02-06T12:06:52.618Z,52.92
2019-02-06T12:11:56.126Z,53.06
2019-02-06T12:16:58.600Z,53.10
2019-02-06T12:22:01.731Z,52.20
2019-02-06T12:27:05.795Z,52.53
2019-02-06T12:32:08.251Z,51.51
2019-02-06T12:37:10.598Z,51.89
2019-02-06T12:42:14.066Z,52.21
2019-02-06T12:47:16.757Z,52.34
2019-02-06T12:52:18.965Z,51.47
2019-02-06T12:57:21.785Z,51.57
2019-02-06T13:02:24.027Z,52.79
2019-02-06T13:07:26.522Z,52.36
2019-02-06T13:12:29.404Z,52.64
2019-02-06T13:17:32.018Z,52.41
2019-02-06T13:22:34.756Z,52.28
2019-02-06T13:27:37.127Z,52.58
2019-02-06T13:32:39.519Z,52.19
2019-02-06T13:37:42.263Z,52.65
2019-02-06T13:42:44.865Z,52.20
2019-02-06T13:47:48.171Z,52.67
2019-02-06T13:52:51.059Z,52.46
2019-02-06T13:57:54.210Z,52.36
2019-02-06T14:02:57.400Z,52.39
2019-02-06T14:08:12.883Z,52.51
2019-02-06T14:13:15.747Z,52.25
2019-02-06T14:18:18.238Z,52.10
2019-02-06T14:24:05.024Z,52.07
2019-02-06T14:30:11.247Z,53.05
2019-02-06T14:36:03.049Z,53.19
2019-02-06T14:41:46.506Z,53.82
2019-02-06T14:47:21.757Z,54.04
2019-02-06T14:52:43.192Z,54.71
2019-02-06T14:58:41.361Z,55.79
2019-02-06T15:04:19.420Z,56.33
2019-02-06T15:10:00.896Z,56.68
2019-02-06T15:15:56.464Z,57.63
2019-02-06T15:21:43.204Z,58.21
2019-02-06T15:27:42.606Z,58.12
2019-02-06T15:33:36.737Z,58.91
2019-02-06T15:39:30.760Z,58.72
2019-02-06T15:45:15.684Z,59.21
2019-02-06T15:51:14.110Z,59.01
2019-02-06T15:57:00.004Z,59.66
2019-02-06T16:02:48.464Z,59.71
2019-02-06T16:09:12.345Z,59.68
2019-02-06T16:15:19.696Z,60.11
2019-02-06T16:21:16.466Z,60.12
2019-02-06T16:27:41.571Z,60.25
2019-02-06T16:33:26.760Z,60.26
2019-02-06T16:39:16.641Z,60.55
2019-02-06T16:44:39.958Z,60.56
2019-02-06T16:50:30.000Z,60.75
2019-02-06T16:56:21.898Z,60.72
2019-02-06T17:02:35.770Z,60.90
2019-02-06T17:08:48.621Z,61.29
2019-02-06T17:14:22.864Z,60.97
2019-02-06T17:20:24.273Z,61.26
2019-02-06T17:26:00.450Z,61.22
2019-02-06T17:31:49.008Z,61.37
2019-02-06T17:37:45.640Z,61.45
2019-02-06T17:43:42.325Z,61.47
2019-02-06T17:49:40.001Z,61.79
2019-02-06T17:55:22.293Z,61.76
2019-02-06T18:00:51.028Z,61.92
2019-02-06T18:05:53.318Z,61.88
2019-02-06T18:10:58.131Z,62.13
2019-02-06T18:16:00.136Z,62.18
2019-02-06T18:21:05.193Z,62.18
2019-02-06T18:26:08.199Z,62.58
2019-02-06T18:31:11.100Z,62.25
2019-02-06T18:36:13.957Z,62.21
2019-02-06T18:41:16.803Z,62.26
2019-02-06T18:46:19.039Z,62.03
2019-02-06T18:51:21.349Z,62.11
2019-02-06T18:56:23.782Z,62.11
2019-02-06T19:01:26.787Z,62.31
2019-02-06T19:06:30.217Z,62.44
2019-02-06T19:11:32.783Z,62.18
2019-02-06T19:16:35.468Z,62.09
2019-02-06T19:21:37.982Z,62.20
2019-02-06T19:26:40.459Z,62.19
2019-02-06T19:31:43.360Z,62.17
2019-02-06T19:36:46.085Z,62.15
2019-02-06T19:41:48.494Z,62.07
2019-02-06T19:46:51.140Z,61.95
2019-02-06T19:51:53.887Z,61.83
2019-02-06T19:56:56.168Z,61.81
2019-02-06T20:01:58.872Z,61.80
2019-02-06T20:07:01.125Z,61.68
2019-02-06T20:12:03.684Z,61.45
2019-02-06T20:17:06.156Z,61.52
2019-02-06T20:22:09.068Z,61.49
2019-02-06T20:27:11.533Z,61.36
2019-02-06T20:32:14.082Z,61.38
2019-02-06T20:37:16.422Z,61.44
2019-02-06T20:42:18.733Z,61.46
2019-02-06T20:47:21.753Z,61.39
2019-02-06T20:52:23.921Z,61.17
2019-02-06T20:57:26.173Z,61.32
2019-02-06T21:02:29.632Z,61.25
2019-02-06T21:07:33.113Z,61.17
2019-02-06T21:12:35.635Z,61.28
2019-02-06T21:17:38.437Z,61.25
2019-02-06T21:22:40.626Z,61.14
2019-02-06T21:27:43.611Z,61.24
2019-02-06T21:32:46.436Z,61.04
2019-02-06T21:37:49.244Z,61.10
2019-02-06T21:42:52.326Z,61.09
2019-02-06T21:47:55.128Z,61.30
2019-02-06T21:52:57.708Z,61.25
2019-02-06T21:58:00.095Z,61.02
2019-02-06T22:03:02.626Z,61.15
2019-02-06T22:08:07.442Z,61.28
2019-02-06T22:13:11.944Z,61.16
2019-02-06T22:18:14.646Z,60.95
2019-02-06T22:23:17.304Z,61.15
2019-02-06T22:28:19.869Z,61.05
2019-02-06T22:33:23.521Z,61.13
2019-02-06T22:38:26.504Z,60.97
2019-02-06T22:43:29.061Z,61.06
2019-02-06T22:48:31.997Z,61.03
2019-02-06T22:53:35.039Z,60.72
2019-02-06T22:58:37.820Z,60.77
2019-02-06T23:03:43.800Z,60.75
2019-02-06T23:08:46.186Z,60.63
2019-02-06T23:13:49.102Z,60.62
2019-02-06T23:18:52.140Z,60.58
2019-02-06T23:23:55.048Z,60.72
2019-02-06T23:28:58.117Z,60.74
2019-02-06T23:34:00.771Z,60.55
2019-02-06T23:39:13.890Z,60.63
2019-02-06T23:44:16.629Z,60.61
2019-02-06T23:49:21.051Z,60.42
2019-02-06T23:54:23.661Z,60.52
2019-02-06T23:59:26.486Z,60.35
